Time;durP1;ratioP1;P1;durP2;ratioP2;P2;SDS_P1;SDS_P2;PMS_P1;PMS_P2;Temp;Humidity;BMP_temperature;BMP_pressure;BME280_temperature;BME280_humidity;BME280_pressure;Samples;Min_cycle;Max_cycle;Signal;HPM_P1;HPM_P2
2022/08/24 00:00:56;;;;;;;3.08;1.27;;;;;;;;;;7395664;19;20066;-74
2022/08/24 00:03:22;;;;;;;3.22;1.30;;;;;;;;;;7395810;19;20029;-72
2022/08/24 00:05:47;;;;;;;4.43;1.35;;;;;;;;;;7395211;19;20018;-74
2022/08/24 00:08:13;;;;;;;1.38;1.20;;;;;;;;;;7396702;19;20005;-73
2022/08/24 00:10:39;;;;;;;1.30;1.20;;;;;;;;;;7396569;19;20028;-73
2022/08/24 00:13:04;;;;;;;1.30;1.00;;;;;;;;;;7396778;19;20006;-73
2022/08/24 00:15:30;;;;;;;5.07;1.35;;;;;;;;;;7397652;19;20466;-73
2022/08/24 00:17:56;;;;;;;1.35;1.25;;;;;;;;;;7396444;19;20006;-73
2022/08/24 00:20:21;;;;;;;2.00;1.33;;;;;;;;;;7397591;19;20062;-73
2022/08/24 00:22:47;;;;;;;1.77;1.23;;;;;;;;;;7396148;19;20508;-74
2022/08/24 00:25:12;;;;;;;1.27;1.15;;;;;;;;;;7398159;19;20011;-73
2022/08/24 00:27:39;;;;;;;1.73;1.10;;;;;;;;;;7391122;19;20020;-73
2022/08/24 00:30:08;;;;;;;2.55;1.20;;;;;;;;;;7393836;19;20226;-73
2022/08/24 00:32:35;;;;;;;1.73;1.40;;;;;;;;;;7395018;19;20015;-73
2022/08/24 00:35:01;;;;;;;1.20;1.10;;;;;;;;;;7397004;19;20010;-72
2022/08/24 00:37:28;;;;;;;2.63;1.25;;;;;;;;;;7392256;19;20557;-72
2022/08/24 00:39:54;;;;;;;2.28;1.30;;;;;;;;;;7395621;19;20363;-73
2022/08/24 00:42:20;;;;;;;1.15;1.05;;;;;;;;;;7393275;19;20054;-73
2022/08/24 00:44:45;;;;;;;1.77;1.40;;;;;;;;;;7393268;19;20027;-72
2022/08/24 00:47:18;;;;;;;1.17;1.08;;;;;;;;;;7396358;19;20507;-73
2022/08/24 00:49:47;;;;;;;5.68;1.27;;;;;;;;;;7392951;19;20074;-73
2022/08/24 00:52:23;;;;;;;4.03;1.35;;;;;;;;;;7393638;19;19998;-73
2022/08/24 00:54:54;;;;;;;1.15;1.02;;;;;;;;;;7395876;19;20066;-73
2022/08/24 00:57:24;;;;;;;1.40;1.30;;;;;;;;;;7393266;19;20066;-73
2022/08/24 00:59:55;;;;;;;1.30;1.20;;;;;;;;;;7392458;19;20119;-73
2022/08/24 01:02:24;;;;;;;2.05;1.30;;;;;;;;;;7395331;19;20007;-73
2022/08/24 01:04:56;;;;;;;1.00;0.95;;;;;;;;;;7394436;19;20466;-73
2022/08/24 01:07:24;;;;;;;2.15;1.23;;;;;;;;;;7392755;19;20458;-72
2022/08/24 01:09:52;;;;;;;1.50;1.40;;;;;;;;;;7394962;19;20002;-73
2022/08/24 01:12:18;;;;;;;1.88;1.27;;;;;;;;;;7395812;19;20698;-73
2022/08/24 01:14:44;;;;;;;1.73;1.30;;;;;;;;;;7394780;19;20026;-73
2022/08/24 01:19:57;;;;;;;2.28;1.48;;;;;;;;;;7394445;19;20013;-73
2022/08/24 01:22:53;;;;;;;1.98;1.20;;;;;;;;;;7394138;19;20607;-73
2022/08/24 01:25:20;;;;;;;1.25;1.05;;;;;;;;;;7395500;19;20033;-72
2022/08/24 01:27:47;;;;;;;1.30;1.20;;;;;;;;;;7390378;19;20074;-73
2022/08/24 01:30:15;;;;;;;1.30;1.17;;;;;;;;;;7395019;19;20010;-73
2022/08/24 01:32:50;;;;;;;1.55;1.40;;;;;;;;;;7394114;19;19999;-72
2022/08/24 01:35:15;;;;;;;2.72;1.20;;;;;;;;;;7394667;19;20344;-73
2022/08/24 01:37:41;;;;;;;2.00;1.25;;;;;;;;;;7390903;19;20002;-73
2022/08/24 01:40:07;;;;;;;1.48;1.30;;;;;;;;;;7394502;19;20010;-73
2022/08/24 01:42:33;;;;;;;2.08;1.33;;;;;;;;;;7392563;19;20010;-72
2022/08/24 01:44:59;;;;;;;1.52;1.30;;;;;;;;;;7393385;19;20010;-73
2022/08/24 01:47:24;;;;;;;1.40;1.15;;;;;;;;;;7391289;19;20015;-73
2022/08/24 01:49:50;;;;;;;1.13;1.02;;;;;;;;;;7392402;19;20003;-73
2022/08/24 01:52:20;;;;;;;2.17;1.40;;;;;;;;;;7394671;19;19994;-73
2022/08/24 01:54:46;;;;;;;3.65;1.77;;;;;;;;;;7393687;19;20006;-73
2022/08/24 01:57:14;;;;;;;1.40;1.30;;;;;;;;;;7394305;19;20036;-72
2022/08/24 01:59:39;;;;;;;2.25;1.55;;;;;;;;;;7390365;19;20019;-72
2022/08/24 02:02:12;;;;;;;1.33;1.23;;;;;;;;;;7393586;19;20014;-73
2022/08/24 02:04:37;;;;;;;1.63;1.30;;;;;;;;;;7392702;19;20011;-72
2022/08/24 02:07:02;;;;;;;3.42;1.30;;;;;;;;;;7390668;19;20031;-73
2022/08/24 02:09:28;;;;;;;2.53;1.30;;;;;;;;;;7388670;19;20008;-73
2022/08/24 02:11:54;;;;;;;1.90;1.17;;;;;;;;;;7392645;19;20006;-73
2022/08/24 02:14:19;;;;;;;0.93;0.93;;;;;;;;;;7393805;19;20375;-73
2022/08/24 02:16:45;;;;;;;1.50;1.40;;;;;;;;;;7391016;19;20077;-73
2022/08/24 02:19:11;;;;;;;1.30;1.10;;;;;;;;;;7394735;19;20023;-73
2022/08/24 02:21:36;;;;;;;1.45;1.23;;;;;;;;;;7391511;19;20027;-73
2022/08/24 02:24:02;;;;;;;1.58;1.23;;;;;;;;;;7388989;19;20014;-74
2022/08/24 02:26:28;;;;;;;1.35;1.20;;;;;;;;;;7392063;19;20011;-73
2022/08/24 02:28:53;;;;;;;2.50;1.48;;;;;;;;;;7389452;19;20115;-73
2022/08/24 02:31:19;;;;;;;1.67;1.17;;;;;;;;;;7389987;19;20119;-73
2022/08/24 02:33:44;;;;;;;2.55;1.10;;;;;;;;;;7390492;19;20641;-73
2022/08/24 02:36:10;;;;;;;2.80;1.23;;;;;;;;;;7390845;19;20006;-74
2022/08/24 02:38:36;;;;;;;2.80;1.20;;;;;;;;;;7392129;19;20002;-74
2022/08/24 02:41:02;;;;;;;1.63;1.40;;;;;;;;;;7390531;19;20486;-73
2022/08/24 02:43:27;;;;;;;2.30;1.30;;;;;;;;;;7394002;19;20002;-73
2022/08/24 02:45:52;;;;;;;1.65;1.50;;;;;;;;;;7392304;19;20005;-73
2022/08/24 02:48:18;;;;;;;2.33;1.30;;;;;;;;;;7388959;19;20015;-73
2022/08/24 02:50:47;;;;;;;1.40;1.30;;;;;;;;;;7391506;19;20010;-73
2022/08/24 02:53:15;;;;;;;1.65;1.08;;;;;;;;;;7388714;19;20010;-73
2022/08/24 02:55:42;;;;;;;1.27;1.17;;;;;;;;;;7388669;19;20535;-73
2022/08/24 02:58:09;;;;;;;3.25;1.33;;;;;;;;;;7390892;19;20011;-73
2022/08/24 03:00:37;;;;;;;2.75;1.17;;;;;;;;;;7391176;19;20036;-72
2022/08/24 03:03:03;;;;;;;1.10;1.00;;;;;;;;;;7391998;19;20010;-73
2022/08/24 03:05:29;;;;;;;2.03;1.17;;;;;;;;;;7391370;19;20006;-71
2022/08/24 03:07:55;;;;;;;1.30;1.20;;;;;;;;;;7392128;19;20011;-73
2022/08/24 03:10:21;;;;;;;1.42;1.25;;;;;;;;;;7389165;19;19999;-73
2022/08/24 03:12:47;;;;;;;1.25;1.15;;;;;;;;;;7391275;19;20327;-72
2022/08/24 03:15:13;;;;;;;1.05;1.00;;;;;;;;;;7389171;19;20384;-73
2022/08/24 03:17:39;;;;;;;1.38;1.10;;;;;;;;;;7386314;19;20062;-73
2022/08/24 03:20:09;;;;;;;1.48;1.30;;;;;;;;;;7390969;19;20006;-73
2022/08/24 03:22:34;;;;;;;1.02;0.95;;;;;;;;;;7390858;19;20038;-73
2022/08/24 03:24:59;;;;;;;1.92;1.38;;;;;;;;;;7386374;19;20017;-72
2022/08/24 03:27:25;;;;;;;1.30;1.00;;;;;;;;;;7390406;19;20022;-73
2022/08/24 03:29:50;;;;;;;1.80;1.30;;;;;;;;;;7392487;19;20066;-73
2022/08/24 03:32:16;;;;;;;1.95;1.35;;;;;;;;;;7390915;19;20391;-73
2022/08/24 03:34:42;;;;;;;1.40;1.15;;;;;;;;;;7389540;19;19995;-73
2022/08/24 03:37:07;;;;;;;2.47;1.42;;;;;;;;;;7393562;19;20411;-73
2022/08/24 03:39:32;;;;;;;1.15;1.05;;;;;;;;;;7395083;19;20010;-72
2022/08/24 03:41:58;;;;;;;1.38;1.13;;;;;;;;;;7396167;19;20034;-71
2022/08/24 03:44:24;;;;;;;1.13;0.93;;;;;;;;;;7398809;19;20011;-72
2022/08/24 03:46:51;;;;;;;1.55;1.27;;;;;;;;;;7396069;19;20018;-71
2022/08/24 03:49:17;;;;;;;1.50;1.40;;;;;;;;;;7398147;19;20100;-71
2022/08/24 03:51:42;;;;;;;1.77;1.20;;;;;;;;;;7397279;19;20011;-71
2022/08/24 03:54:08;;;;;;;2.53;1.30;;;;;;;;;;7398166;19;20001;-73
2022/08/24 03:56:34;;;;;;;2.45;1.52;;;;;;;;;;7397887;19;19994;-73
2022/08/24 03:58:59;;;;;;;3.13;1.08;;;;;;;;;;7397543;19;20427;-72
2022/08/24 04:01:25;;;;;;;1.15;1.00;;;;;;;;;;7399068;19;20458;-72
2022/08/24 04:03:53;;;;;;;2.50;1.45;;;;;;;;;;7398635;19;20411;-72
2022/08/24 04:06:19;;;;;;;1.92;1.35;;;;;;;;;;7394539;19;20423;-75
2022/08/24 04:08:45;;;;;;;1.92;1.35;;;;;;;;;;7394004;19;20023;-74
2022/08/24 04:11:14;;;;;;;2.75;1.20;;;;;;;;;;7394113;19;20025;-75
2022/08/24 04:13:40;;;;;;;3.35;1.40;;;;;;;;;;7395887;19;20032;-75
2022/08/24 04:16:13;;;;;;;2.33;1.17;;;;;;;;;;7396619;19;20074;-75
2022/08/24 04:18:40;;;;;;;1.58;1.35;;;;;;;;;;7396950;19;20339;-74
2022/08/24 04:21:05;;;;;;;1.20;1.08;;;;;;;;;;7397459;19;20015;-74
2022/08/24 04:23:32;;;;;;;1.52;1.20;;;;;;;;;;7397041;19;20001;-73
2022/08/24 04:26:02;;;;;;;1.20;1.10;;;;;;;;;;7393973;19;20018;-76
2022/08/24 04:28:28;;;;;;;1.33;1.05;;;;;;;;;;7394966;19;19999;-76
2022/08/24 04:30:54;;;;;;;1.30;1.20;;;;;;;;;;7398677;19;20339;-76
2022/08/24 04:33:19;;;;;;;1.38;1.23;;;;;;;;;;7395796;19;20002;-76
2022/08/24 04:35:47;;;;;;;3.30;1.30;;;;;;;;;;7397876;19;19999;-77
2022/08/24 04:38:13;;;;;;;3.15;1.58;;;;;;;;;;7396378;19;20006;-77
2022/08/24 04:40:41;;;;;;;0.82;0.82;;;;;;;;;;7402123;19;20413;-77
2022/08/24 04:43:07;;;;;;;1.77;1.17;;;;;;;;;;7400173;19;20014;-76
2022/08/24 04:45:36;;;;;;;1.40;1.30;;;;;;;;;;7394613;19;20025;-77
2022/08/24 04:48:02;;;;;;;0.98;0.98;;;;;;;;;;7394499;19;20082;-76
2022/08/24 04:50:27;;;;;;;2.17;1.10;;;;;;;;;;7397409;19;20045;-75
2022/08/24 04:52:52;;;;;;;1.92;1.23;;;;;;;;;;7392836;19;20007;-76
2022/08/24 04:55:18;;;;;;;2.47;1.20;;;;;;;;;;7395777;19;20006;-76
2022/08/24 04:57:43;;;;;;;1.45;1.35;;;;;;;;;;7392136;19;20013;-76
2022/08/24 05:00:10;;;;;;;1.92;1.45;;;;;;;;;;7396696;19;20022;-77
2022/08/24 05:02:38;;;;;;;3.63;1.45;;;;;;;;;;7399301;19;20058;-77
2022/08/24 05:05:06;;;;;;;5.32;1.70;;;;;;;;;;7397451;19;20038;-77
2022/08/24 05:07:31;;;;;;;4.43;1.48;;;;;;;;;;7394914;19;19999;-76
2022/08/24 05:09:57;;;;;;;2.40;1.45;;;;;;;;;;7394754;19;20011;-77
2022/08/24 05:12:23;;;;;;;1.52;1.30;;;;;;;;;;7398014;19;20037;-77
2022/08/24 05:14:48;;;;;;;2.47;1.38;;;;;;;;;;7395852;19;20037;-77
2022/08/24 05:17:13;;;;;;;8.40;2.38;;;;;;;;;;7396006;19;20050;-75
2022/08/24 05:19:39;;;;;;;1.30;1.20;;;;;;;;;;7394715;19;19986;-74
2022/08/24 05:22:04;;;;;;;1.73;1.20;;;;;;;;;;7392965;19;19995;-75
2022/08/24 05:24:29;;;;;;;1.35;1.20;;;;;;;;;;7393881;19;20022;-75
2022/08/24 05:26:55;;;;;;;1.95;1.30;;;;;;;;;;7392880;19;20009;-76
2022/08/24 05:29:20;;;;;;;2.40;1.05;;;;;;;;;;7393805;19;20026;-77
2022/08/24 05:31:46;;;;;;;2.25;1.10;;;;;;;;;;7390426;19;20368;-76
2022/08/24 05:34:12;;;;;;;1.77;1.17;;;;;;;;;;7395395;19;20465;-76
2022/08/24 05:36:39;;;;;;;1.48;1.30;;;;;;;;;;7392162;19;20029;-76
2022/08/24 05:39:12;;;;;;;2.75;1.60;;;;;;;;;;7395141;19;20009;-77
2022/08/24 05:41:40;;;;;;;1.20;1.10;;;;;;;;;;7395104;19;20462;-75
2022/08/24 05:44:06;;;;;;;2.30;1.35;;;;;;;;;;7394620;19;20010;-76
2022/08/24 05:46:31;;;;;;;1.45;1.13;;;;;;;;;;7392294;19;20009;-75
2022/08/24 05:48:57;;;;;;;3.58;1.65;;;;;;;;;;7393173;19;20010;-76
2022/08/24 05:51:22;;;;;;;2.42;1.60;;;;;;;;;;7393229;19;20470;-75
2022/08/24 05:53:47;;;;;;;5.03;1.70;;;;;;;;;;7395095;19;20106;-75
2022/08/24 05:56:15;;;;;;;1.75;1.55;;;;;;;;;;7393794;19;20044;-75
2022/08/24 05:58:40;;;;;;;3.08;1.92;;;;;;;;;;7392228;19;20361;-76
2022/08/24 06:01:14;;;;;;;2.38;1.70;;;;;;;;;;7394238;19;20010;-76
2022/08/24 06:03:40;;;;;;;2.22;1.80;;;;;;;;;;7395769;19;19998;-76
2022/08/24 06:06:07;;;;;;;4.93;2.10;;;;;;;;;;7393623;19;20359;-76
2022/08/24 06:08:38;;;;;;;2.75;2.15;;;;;;;;;;7393621;19;19995;-76
2022/08/24 06:11:04;;;;;;;4.72;2.50;;;;;;;;;;7387976;19;20106;-76
2022/08/24 06:13:32;;;;;;;3.92;2.90;;;;;;;;;;7394145;19;20018;-77
2022/08/24 06:16:06;;;;;;;3.97;2.20;;;;;;;;;;7395650;19;20003;-76
2022/08/24 06:18:34;;;;;;;3.25;2.35;;;;;;;;;;7388315;19;20380;-76
2022/08/24 06:21:04;;;;;;;2.90;2.35;;;;;;;;;;7394744;19;20002;-77
2022/08/24 06:23:30;;;;;;;2.70;2.20;;;;;;;;;;7389948;19;20059;-77
2022/08/24 06:28:40;;;;;;;;;;;;;;;;;;7393247;19;20026;-77
2022/08/24 06:31:06;;;;;;;2.92;2.22;;;;;;;;;;7392546;19;19918;-76
2022/08/24 06:33:32;;;;;;;4.80;2.95;;;;;;;;;;7387871;19;20002;-75
2022/08/24 06:35:58;;;;;;;4.78;2.55;;;;;;;;;;7391464;19;20368;-74
2022/08/24 06:38:23;;;;;;;3.03;2.55;;;;;;;;;;7389926;19;20007;-75
2022/08/24 06:40:48;;;;;;;4.28;3.00;;;;;;;;;;7392419;19;20411;-75
2022/08/24 06:43:14;;;;;;;5.50;3.10;;;;;;;;;;7392479;19;20081;-75
2022/08/24 06:45:40;;;;;;;4.40;2.78;;;;;;;;;;7390772;19;20042;-75
2022/08/24 06:48:06;;;;;;;3.58;2.92;;;;;;;;;;7392215;19;19998;-74
2022/08/24 06:50:31;;;;;;;5.10;2.70;;;;;;;;;;7391483;19;20009;-75
2022/08/24 06:52:57;;;;;;;3.22;2.65;;;;;;;;;;7391883;19;20017;-74
2022/08/24 06:55:22;;;;;;;5.38;3.67;;;;;;;;;;7392496;19;20023;-75
2022/08/24 06:57:48;;;;;;;4.95;3.88;;;;;;;;;;7389688;19;20002;-75
2022/08/24 07:00:14;;;;;;;6.20;3.67;;;;;;;;;;7393957;19;20024;-76
2022/08/24 07:02:40;;;;;;;5.82;3.83;;;;;;;;;;7391052;19;20051;-74
2022/08/24 07:05:05;;;;;;;3.80;3.25;;;;;;;;;;7393724;19;20470;-74
2022/08/24 07:07:31;;;;;;;9.43;3.90;;;;;;;;;;7389691;19;20014;-75
2022/08/24 07:09:59;;;;;;;6.47;4.10;;;;;;;;;;7397616;19;20359;-75
2022/08/24 07:12:25;;;;;;;6.07;3.50;;;;;;;;;;7397776;19;19987;-74
2022/08/24 07:14:51;;;;;;;5.47;3.30;;;;;;;;;;7398112;19;20945;-75
2022/08/24 07:17:17;;;;;;;5.75;3.33;;;;;;;;;;7396735;19;20007;-74
2022/08/24 07:19:44;;;;;;;5.78;3.60;;;;;;;;;;7399868;19;20017;-75
2022/08/24 07:22:11;;;;;;;8.50;4.22;;;;;;;;;;7396926;19;20015;-74
2022/08/24 07:24:36;;;;;;;4.78;3.33;;;;;;;;;;7399563;19;20343;-75
2022/08/24 07:27:02;;;;;;;5.75;3.80;;;;;;;;;;7393632;19;20010;-76
2022/08/24 07:29:27;;;;;;;6.82;3.35;;;;;;;;;;7398583;19;20006;-75
2022/08/24 07:31:53;;;;;;;4.40;3.53;;;;;;;;;;7393890;19;20023;-74
2022/08/24 07:34:18;;;;;;;6.03;3.80;;;;;;;;;;7396657;19;20007;-75
2022/08/24 07:36:43;;;;;;;5.35;3.25;;;;;;;;;;7396055;19;20020;-75
2022/08/24 07:39:09;;;;;;;5.00;3.70;;;;;;;;;;7395014;19;20014;-75
2022/08/24 07:41:40;;;;;;;6.13;3.38;;;;;;;;;;7399428;19;20031;-76
2022/08/24 07:44:06;;;;;;;3.72;3.08;;;;;;;;;;7399332;19;20461;-77
2022/08/24 07:46:32;;;;;;;4.22;3.00;;;;;;;;;;7394418;19;20116;-76
2022/08/24 07:48:57;;;;;;;4.18;3.00;;;;;;;;;;7392076;19;20007;-76
2022/08/24 07:51:23;;;;;;;3.20;2.90;;;;;;;;;;7395809;19;20018;-76
2022/08/24 07:53:48;;;;;;;5.20;2.80;;;;;;;;;;7397994;19;20018;-76
2022/08/24 07:56:14;;;;;;;5.03;2.92;;;;;;;;;;7399142;19;20005;-76
2022/08/24 07:58:39;;;;;;;4.55;3.03;;;;;;;;;;7395673;19;20586;-76
2022/08/24 08:01:07;;;;;;;3.35;2.80;;;;;;;;;;7395528;19;20006;-76
2022/08/24 08:03:33;;;;;;;6.28;4.70;;;;;;;;;;7397301;19;20019;-77
2022/08/24 08:06:02;;;;;;;4.28;2.53;;;;;;;;;;7397757;19;20078;-76
2022/08/24 08:08:28;;;;;;;3.70;2.20;;;;;;;;;;7395078;19;20010;-75
2022/08/24 08:10:54;;;;;;;2.67;2.00;;;;;;;;;;7396287;19;20007;-76
2022/08/24 08:13:19;;;;;;;4.70;1.77;;;;;;;;;;7396472;19;20021;-75
2022/08/24 08:15:45;;;;;;;2.22;1.50;;;;;;;;;;7395839;19;20010;-75
2022/08/24 08:18:11;;;;;;;1.95;1.35;;;;;;;;;;7398369;19;20009;-75
2022/08/24 08:20:39;;;;;;;3.30;1.30;;;;;;;;;;7397291;19;20042;-75
2022/08/24 08:25:54;;;;;;;1.90;1.30;;;;;;;;;;7394650;19;20037;-75
2022/08/24 08:28:20;;;;;;;2.55;1.27;;;;;;;;;;7393242;19;20110;-75
2022/08/24 08:30:46;;;;;;;4.93;2.88;;;;;;;;;;7397328;19;20006;-75
2022/08/24 08:33:12;;;;;;;1.60;1.50;;;;;;;;;;7396355;19;20018;-75
2022/08/24 08:35:39;;;;;;;1.30;1.20;;;;;;;;;;7395602;19;19998;-75
2022/08/24 08:38:05;;;;;;;2.45;1.30;;;;;;;;;;7393573;19;19990;-75
2022/08/24 08:40:36;;;;;;;2.47;1.17;;;;;;;;;;7394057;19;19995;-74
2022/08/24 08:43:20;;;;;;;3.58;1.33;;;;;;;;;;7397026;19;20366;-76
2022/08/24 08:46:06;;;;;;;1.95;1.25;;;;;;;;;;7397762;19;20021;-76
2022/08/24 08:48:47;;;;;;;2.10;1.10;;;;;;;;;;7393227;19;20005;-76
2022/08/24 08:51:47;;;;;;;2.85;1.30;;;;;;;;;;7394835;19;20010;-76
2022/08/24 08:54:17;;;;;;;5.43;1.30;;;;;;;;;;7397454;19;20003;-74
2022/08/24 08:57:13;;;;;;;3.30;1.25;;;;;;;;;;7392165;19;20010;-76
2022/08/24 09:00:04;;;;;;;1.45;1.20;;;;;;;;;;7394553;19;20018;-76
2022/08/24 09:03:26;;;;;;;4.13;1.63;;;;;;;;;;7394215;19;20078;-75
2022/08/24 09:06:08;;;;;;;6.88;1.70;;;;;;;;;;7391451;19;20029;-76
2022/08/24 09:08:53;;;;;;;2.45;1.60;;;;;;;;;;7391766;19;20462;-76
2022/08/24 09:11:42;;;;;;;2.55;1.70;;;;;;;;;;7397331;19;20017;-77
2022/08/24 09:14:26;;;;;;;3.67;1.40;;;;;;;;;;7397424;19;20006;-76
2022/08/24 09:17:20;;;;;;;2.47;1.55;;;;;;;;;;7392365;19;19998;-76
2022/08/24 09:20:13;;;;;;;3.88;1.50;;;;;;;;;;7393800;19;20066;-77
2022/08/24 09:22:42;;;;;;;1.50;1.25;;;;;;;;;;7392032;19;20021;-76
2022/08/24 09:25:27;;;;;;;2.15;1.40;;;;;;;;;;7396846;19;20010;-76
2022/08/24 09:28:22;;;;;;;3.47;1.33;;;;;;;;;;7391730;19;20010;-77
2022/08/24 09:31:03;;;;;;;1.70;1.40;;;;;;;;;;7391403;19;20352;-76
2022/08/24 09:33:48;;;;;;;2.65;1.85;;;;;;;;;;7393432;19;20012;-77
2022/08/24 09:36:30;;;;;;;8.45;1.55;;;;;;;;;;7394458;19;20026;-76
2022/08/24 09:38:57;;;;;;;2.05;1.50;;;;;;;;;;7394382;19;20010;-78
2022/08/24 09:41:53;;;;;;;2.40;1.23;;;;;;;;;;7395885;19;20035;-77
2022/08/24 09:44:46;;;;;;;1.67;1.30;;;;;;;;;;7395133;19;20002;-76
2022/08/24 09:47:14;;;;;;;1.45;1.27;;;;;;;;;;7388992;19;20529;-77
2022/08/24 09:49:48;;;;;;;3.85;1.50;;;;;;;;;;7392006;19;20476;-76
2022/08/24 09:52:47;;;;;;;1.55;1.45;;;;;;;;;;7391036;19;20028;-76
2022/08/24 09:55:29;;;;;;;1.60;1.27;;;;;;;;;;7396966;19;20023;-76
2022/08/24 09:58:08;;;;;;;2.75;1.77;;;;;;;;;;7390832;19;20333;-76
2022/08/24 10:00:43;;;;;;;3.45;1.95;;;;;;;;;;7391035;19;20007;-77
2022/08/24 10:03:44;;;;;;;2.10;1.50;;;;;;;;;;7394873;19;20018;-77
2022/08/24 10:06:35;;;;;;;2.05;1.23;;;;;;;;;;7392927;19;20019;-76
2022/08/24 10:09:09;;;;;;;0.93;0.93;;;;;;;;;;7392061;19;20066;-79
2022/08/24 10:12:05;;;;;;;0.83;0.80;;;;;;;;;;7393857;19;20005;-78
2022/08/24 10:14:39;;;;;;;;;;;;;;;;;;7394393;19;20002;-77
2022/08/24 10:17:46;;;;;;;4.30;0.95;;;;;;;;;;7393066;19;19978;-76
2022/08/24 10:20:22;;;;;;;1.38;1.27;;;;;;;;;;7387245;19;20028;-77
2022/08/24 10:23:07;;;;;;;1.00;0.90;;;;;;;;;;7389901;19;20006;-76
2022/08/24 10:26:06;;;;;;;2.73;1.00;;;;;;;;;;7389737;19;20003;-76
2022/08/24 10:29:17;;;;;;;1.08;0.73;;;;;;;;;;7390107;19;19998;-76
2022/08/24 10:31:47;;;;;;;5.95;2.50;;;;;;;;;;7391112;19;20003;-76
2022/08/24 10:34:33;;;;;;;5.78;3.20;;;;;;;;;;7392466;19;20013;-76
2022/08/24 10:37:33;;;;;;;1.65;1.30;;;;;;;;;;7391046;19;20013;-77
2022/08/24 10:40:19;;;;;;;1.35;1.10;;;;;;;;;;7392842;19;20023;-77
2022/08/24 10:43:32;;;;;;;0.70;0.70;;;;;;;;;;7393804;19;20044;-76
2022/08/24 10:46:04;;;;;;;1.60;1.10;;;;;;;;;;7400181;19;20003;-76
2022/08/24 10:48:29;;;;;;;1.08;0.95;;;;;;;;;;7400783;19;20035;-76
2022/08/24 10:51:33;;;;;;;1.02;0.80;;;;;;;;;;7399584;19;20364;-76
2022/08/24 10:53:59;;;;;;;0.70;0.70;;;;;;;;;;7401822;19;20763;-76
2022/08/24 10:57:00;;;;;;;2.05;0.85;;;;;;;;;;7396335;19;20018;-77
2022/08/24 11:00:04;;;;;;;0.88;0.88;;;;;;;;;;7399476;19;20445;-77
2022/08/24 11:02:35;;;;;;;1.17;0.73;;;;;;;;;;7400282;19;20082;-76
2022/08/24 11:05:06;;;;;;;1.48;1.10;;;;;;;;;;7401265;19;20006;-77
2022/08/24 11:07:33;;;;;;;1.45;1.00;;;;;;;;;;7397811;19;20094;-76
2022/08/24 11:10:02;;;;;;;0.93;0.77;;;;;;;;;;7399617;19;20019;-78
2022/08/24 11:12:35;;;;;;;1.10;1.00;;;;;;;;;;7401013;19;20014;-77
2022/08/24 11:15:09;;;;;;;2.10;0.95;;;;;;;;;;7401262;19;20007;-76
2022/08/24 11:17:34;;;;;;;1.73;1.10;;;;;;;;;;7395042;19;20470;-77
2022/08/24 11:20:00;;;;;;;0.95;0.90;;;;;;;;;;7401276;19;20074;-77
2022/08/24 11:22:36;;;;;;;2.35;1.58;;;;;;;;;;7398762;19;20047;-76
2022/08/24 11:25:15;;;;;;;1.33;1.20;;;;;;;;;;7400658;19;20062;-77
2022/08/24 11:27:45;;;;;;;2.67;0.95;;;;;;;;;;7394976;19;20032;-78
2022/08/24 11:30:16;;;;;;;1.50;1.00;;;;;;;;;;7400654;19;20451;-78
2022/08/24 11:32:52;;;;;;;4.40;1.30;;;;;;;;;;7398945;19;20486;-78
2022/08/24 11:35:35;;;;;;;0.85;0.80;;;;;;;;;;7399021;19;20438;-77
2022/08/24 11:38:25;;;;;;;0.90;0.70;;;;;;;;;;7397686;19;20034;-77
2022/08/24 11:41:11;;;;;;;1.35;1.00;;;;;;;;;;7397889;19;20021;-76
2022/08/24 11:43:58;;;;;;;0.70;0.70;;;;;;;;;;7399901;19;19995;-75
2022/08/24 11:46:26;;;;;;;2.08;1.05;;;;;;;;;;7398589;19;19999;-72
2022/08/24 11:49:34;;;;;;;2.20;0.75;;;;;;;;;;7396075;19;20359;-73
2022/08/24 11:52:27;;;;;;;0.93;0.80;;;;;;;;;;7398030;19;20005;-75
2022/08/24 11:55:24;;;;;;;1.20;0.88;;;;;;;;;;7398313;19;20011;-75
2022/08/24 11:58:01;;;;;;;1.10;0.70;;;;;;;;;;7393122;19;19999;-75
2022/08/24 12:00:38;;;;;;;0.70;0.63;;;;;;;;;;7396523;19;20007;-74
2022/08/24 12:03:10;;;;;;;0.80;0.80;;;;;;;;;;7397960;19;20031;-74
2022/08/24 12:05:36;;;;;;;0.65;0.63;;;;;;;;;;7398674;19;20006;-75
2022/08/24 12:08:34;;;;;;;0.90;0.70;;;;;;;;;;7394469;19;20477;-75
2022/08/24 12:11:32;;;;;;;1.67;0.77;;;;;;;;;;7395357;19;20021;-74
2022/08/24 12:14:03;;;;;;;0.90;0.90;;;;;;;;;;7391822;19;20070;-74
2022/08/24 12:16:56;;;;;;;2.83;0.90;;;;;;;;;;7396726;19;20031;-76
2022/08/24 12:19:29;;;;;;;1.17;0.98;;;;;;;;;;7398087;19;20057;-77
2022/08/24 12:22:06;;;;;;;1.60;1.08;;;;;;;;;;7395498;19;19999;-77
2022/08/24 12:24:43;;;;;;;0.85;0.80;;;;;;;;;;7393265;19;20011;-76
2022/08/24 12:27:26;;;;;;;1.58;0.93;;;;;;;;;;7393427;19;20308;-77
2022/08/24 12:30:11;;;;;;;0.80;0.80;;;;;;;;;;7397755;19;20006;-76
2022/08/24 12:32:45;;;;;;;1.15;1.05;;;;;;;;;;7398002;19;20031;-77
2022/08/24 12:35:27;;;;;;;0.85;0.85;;;;;;;;;;7399818;19;19994;-77
2022/08/24 12:38:02;;;;;;;1.58;0.80;;;;;;;;;;7393710;19;19999;-76
2022/08/24 12:40:32;;;;;;;0.75;0.75;;;;;;;;;;7395559;19;19998;-76
2022/08/24 12:43:13;;;;;;;2.60;1.00;;;;;;;;;;7395034;19;20007;-77
2022/08/24 12:45:39;;;;;;;1.70;0.98;;;;;;;;;;7395105;19;20070;-76
2022/08/24 12:48:04;;;;;;;1.42;0.80;;;;;;;;;;7398533;19;20006;-76
2022/08/24 12:50:58;;;;;;;1.50;1.05;;;;;;;;;;7394180;19;20322;-77
2022/08/24 12:53:38;;;;;;;1.35;0.90;;;;;;;;;;7392978;19;20015;-77
2022/08/24 12:56:25;;;;;;;1.15;1.05;;;;;;;;;;7397117;19;20007;-76
2022/08/24 12:58:59;;;;;;;2.88;1.00;;;;;;;;;;7397628;19;19998;-76
2022/08/24 13:01:28;;;;;;;0.77;0.77;;;;;;;;;;7392053;19;20343;-77
2022/08/24 13:04:11;;;;;;;3.58;2.67;;;;;;;;;;7393886;19;20427;-76
2022/08/24 13:06:51;;;;;;;1.30;1.08;;;;;;;;;;7392392;19;20469;-76
2022/08/24 13:09:52;;;;;;;1.02;1.00;;;;;;;;;;7397349;19;20010;-76
2022/08/24 13:12:29;;;;;;;0.70;0.70;;;;;;;;;;7398538;19;19999;-76
2022/08/24 13:15:23;;;;;;;1.00;1.00;;;;;;;;;;7393901;19;20003;-76
2022/08/24 13:17:51;;;;;;;3.83;0.70;;;;;;;;;;7392562;19;20477;-76
2022/08/24 13:20:33;;;;;;;1.63;0.90;;;;;;;;;;7392067;19;20001;-76
2022/08/24 13:23:12;;;;;;;1.40;1.00;;;;;;;;;;7396096;19;20494;-77
2022/08/24 13:25:46;;;;;;;2.00;1.10;;;;;;;;;;7396380;19;20006;-76
2022/08/24 13:28:20;;;;;;;2.60;0.60;;;;;;;;;;7392445;19;20009;-77
2022/08/24 13:31:11;;;;;;;0.80;0.80;;;;;;;;;;7391369;19;20006;-78
2022/08/24 13:33:48;;;;;;;1.05;0.90;;;;;;;;;;7391777;19;20006;-77
2022/08/24 13:36:35;;;;;;;0.70;0.70;;;;;;;;;;7392900;19;20005;-77
2022/08/24 13:39:33;;;;;;;0.95;0.80;;;;;;;;;;7394907;19;20014;-76
2022/08/24 13:42:16;;;;;;;7.88;6.03;;;;;;;;;;7396746;19;20090;-76
2022/08/24 13:45:16;;;;;;;1.50;1.30;;;;;;;;;;7392743;19;20016;-76
2022/08/24 13:48:06;;;;;;;2.17;1.10;;;;;;;;;;7389848;19;19999;-76
2022/08/24 13:51:04;;;;;;;1.00;0.90;;;;;;;;;;7392202;19;20062;-76
2022/08/24 13:53:40;;;;;;;1.30;0.90;;;;;;;;;;7394836;19;20014;-76
2022/08/24 13:56:24;;;;;;;2.08;0.80;;;;;;;;;;7395475;19;20011;-76
2022/08/24 13:59:07;;;;;;;0.65;0.65;;;;;;;;;;7390942;19;20013;-76
2022/08/24 14:02:06;;;;;;;0.95;0.85;;;;;;;;;;7394525;19;19999;-76
2022/08/24 14:04:51;;;;;;;0.60;0.60;;;;;;;;;;7391110;19;20002;-76
2022/08/24 14:07:23;;;;;;;0.60;0.60;;;;;;;;;;7393533;19;20010;-76
2022/08/24 14:10:12;;;;;;;0.82;0.80;;;;;;;;;;7391321;19;19998;-76
2022/08/24 14:12:57;;;;;;;3.80;1.60;;;;;;;;;;7394047;19;20006;-76
2022/08/24 14:15:47;;;;;;;2.70;0.90;;;;;;;;;;7394204;19;19998;-76
2022/08/24 14:18:12;;;;;;;0.88;0.75;;;;;;;;;;7388421;19;20011;-76
2022/08/24 14:20:49;;;;;;;0.80;0.77;;;;;;;;;;7394282;19;20003;-76
2022/08/24 14:23:24;;;;;;;3.45;0.70;;;;;;;;;;7394753;19;20509;-76
2022/08/24 14:26:10;;;;;;;0.70;0.70;;;;;;;;;;7389353;19;19998;-76
2022/08/24 14:28:41;;;;;;;0.82;0.82;;;;;;;;;;7390404;19;19991;-77
2022/08/24 14:31:11;;;;;;;0.70;0.70;;;;;;;;;;7391320;19;20006;-77
2022/08/24 14:33:48;;;;;;;0.80;0.80;;;;;;;;;;7391024;19;19998;-77
2022/08/24 14:36:29;;;;;;;0.70;0.70;;;;;;;;;;7395046;19;20029;-77
2022/08/24 14:39:08;;;;;;;0.82;0.80;;;;;;;;;;7392511;19;20026;-76
2022/08/24 14:41:52;;;;;;;1.23;0.73;;;;;;;;;;7393253;19;20599;-77
2022/08/24 14:44:44;;;;;;;0.70;0.70;;;;;;;;;;7395132;19;19999;-76
2022/08/24 14:47:25;;;;;;;0.68;0.68;;;;;;;;;;7387962;19;20013;-73
2022/08/24 14:50:03;;;;;;;2.38;0.85;;;;;;;;;;7392911;19;20012;-74
2022/08/24 14:52:28;;;;;;;1.00;0.80;;;;;;;;;;7390586;19;20002;-76
2022/08/24 14:55:05;;;;;;;1.25;0.70;;;;;;;;;;7390033;19;20043;-77
2022/08/24 14:57:52;;;;;;;0.50;0.50;;;;;;;;;;7388840;19;20022;-76
2022/08/24 15:00:20;;;;;;;0.85;0.60;;;;;;;;;;7393580;19;20006;-78
2022/08/24 15:03:05;;;;;;;1.30;0.57;;;;;;;;;;7386400;19;20114;-77
2022/08/24 15:05:31;;;;;;;0.40;0.40;;;;;;;;;;7392097;19;20002;-77
2022/08/24 15:08:04;;;;;;;0.55;0.55;;;;;;;;;;7389769;19;20011;-78
2022/08/24 15:10:38;;;;;;;0.63;0.50;;;;;;;;;;7391641;19;20014;-77
2022/08/24 15:13:18;;;;;;;4.27;1.40;;;;;;;;;;7392211;19;20285;-76
2022/08/24 15:15:56;;;;;;;1.02;0.88;;;;;;;;;;7389173;19;20773;-77
2022/08/24 15:18:44;;;;;;;0.77;0.77;;;;;;;;;;7390971;19;19999;-77
2022/08/24 15:21:27;;;;;;;0.60;0.60;;;;;;;;;;7387204;19;20062;-76
2022/08/24 15:24:10;;;;;;;1.80;0.55;;;;;;;;;;7390372;19;20114;-77
2022/08/24 15:27:01;;;;;;;2.47;1.80;;;;;;;;;;7391430;19;20011;-77